createdAt,value
2023-03-05T00:00:36.619Z,97524.45
2023-03-05T00:03:07.012Z,97529.91
2023-03-05T00:05:36.950Z,97535.08
2023-03-05T00:08:07.309Z,97529.91
2023-03-05T00:10:37.274Z,97538.09
2023-03-05T00:13:10.194Z,97535.36
2023-03-05T00:15:44.599Z,97535.60
2023-03-05T00:18:14.627Z,97541.88
2023-03-05T00:20:44.688Z,97545.97
2023-03-05T00:23:16.184Z,97553.87
2023-03-05T00:25:47.359Z,97563.42
2023-03-05T00:28:17.264Z,97559.30
2023-03-05T00:30:47.657Z,97558.76
2023-03-05T00:33:17.574Z,97567.23
2023-03-05T00:35:48.508Z,97566.67
2023-03-05T00:38:18.495Z,97569.39
2023-03-05T00:40:51.860Z,97570.45
2023-03-05T00:43:22.094Z,97578.63
2023-03-05T00:45:53.048Z,97579.45
2023-03-05T00:48:24.591Z,97587.36
2023-03-05T00:50:54.844Z,97580.81
2023-03-05T00:53:24.883Z,97586.55
2023-03-05T00:55:56.589Z,97584.09
2023-03-05T00:58:26.898Z,97583.24
2023-03-05T01:01:02.797Z,97582.73
2023-03-05T01:03:41.191Z,97587.33
2023-03-05T01:06:14.093Z,97584.91
2023-03-05T01:08:45.902Z,97594.97
2023-03-05T01:11:15.895Z,97599.33
2023-03-05T01:13:45.900Z,97597.39
2023-03-05T01:16:16.357Z,97593.25
2023-03-05T01:18:48.191Z,97601.20
2023-03-05T01:21:18.215Z,97608.30
2023-03-05T01:23:53.654Z,97604.48
2023-03-05T01:26:24.850Z,97615.09
2023-03-05T01:28:57.786Z,97615.36
2023-03-05T01:31:30.074Z,97614.54
2023-03-05T01:34:01.525Z,97606.61
2023-03-05T01:36:32.974Z,97611.52
2023-03-05T01:39:04.008Z,97612.60
2023-03-05T01:41:36.783Z,97611.48
2023-03-05T01:44:11.980Z,97617.23
2023-03-05T01:46:42.517Z,97616.66
2023-03-05T01:49:34.684Z,97622.11
2023-03-05T01:52:17.759Z,97619.94
2023-03-05T01:54:57.836Z,97622.91
2023-03-05T01:57:39.156Z,97623.69
2023-03-05T02:00:12.410Z,97620.69
2023-03-05T02:02:45.093Z,97621.27
2023-03-05T02:05:18.017Z,97621.81
2023-03-05T02:07:47.986Z,97622.87
2023-03-05T02:10:25.459Z,97623.14
2023-03-05T02:13:00.734Z,97626.11
2023-03-05T02:15:36.611Z,97635.89
2023-03-05T02:18:08.596Z,97641.10
2023-03-05T02:20:55.291Z,97642.70
2023-03-05T02:23:29.925Z,97647.61
2023-03-05T02:26:03.659Z,97652.79
2023-03-05T02:28:53.702Z,97654.70
2023-03-05T02:31:28.087Z,97660.66
2023-03-05T02:33:58.333Z,97660.39
2023-03-05T02:36:35.888Z,97655.48
2023-03-05T02:39:13.481Z,97656.57
2023-03-05T02:41:45.438Z,97658.48
2023-03-05T02:44:20.775Z,97666.35
2023-03-05T02:47:00.190Z,97661.75
2023-03-05T02:49:30.240Z,97660.08
2023-03-05T02:52:00.152Z,97656.54
2023-03-05T02:54:30.409Z,97661.45
2023-03-05T02:57:00.961Z,97662.80
2023-03-05T02:59:34.336Z,97664.44
2023-03-05T03:02:04.837Z,97666.86
2023-03-05T03:07:16.976Z,97676.95
2023-03-05T03:09:46.965Z,97670.38
2023-03-05T03:12:16.939Z,97670.91
2023-03-05T03:15:00.002Z,97672.82
2023-03-05T03:17:30.010Z,97675.27
2023-03-05T03:20:02.182Z,97675.52
2023-03-05T03:22:34.283Z,97676.06
2023-03-05T03:25:05.618Z,97677.11
2023-03-05T03:27:44.550Z,97679.84
2023-03-05T03:30:23.639Z,97676.56
2023-03-05T03:32:57.279Z,97682.56
2023-03-05T03:35:33.611Z,97681.20
2023-03-05T03:38:07.216Z,97680.62
2023-03-05T03:40:43.677Z,97678.98
2023-03-05T03:43:14.552Z,97681.95
2023-03-05T03:45:47.631Z,97682.77
2023-03-05T03:48:17.854Z,97687.12
2023-03-05T03:50:49.106Z,97685.72
2023-03-05T03:53:22.289Z,97690.01
2023-03-05T03:55:52.302Z,97698.22
2023-03-05T03:58:26.617Z,97695.49
2023-03-05T04:00:54.899Z,97703.94
2023-03-05T04:03:35.304Z,97705.53
2023-03-05T04:06:06.026Z,97701.72
2023-03-05T04:08:42.745Z,97708.80
2023-03-05T04:11:20.720Z,97708.50
2023-03-05T04:13:47.771Z,97695.58
2023-03-05T04:16:17.775Z,97711.73
2023-03-05T04:18:48.024Z,97704.34
2023-03-05T04:21:17.992Z,97706.21
2023-03-05T04:23:47.841Z,97705.16
2023-03-05T04:26:17.978Z,97704.03
2023-03-05T04:28:49.144Z,97712.48
2023-03-05T04:31:22.085Z,97713.02
2023-03-05T04:33:52.147Z,97718.19
2023-03-05T04:36:22.393Z,97718.73
2023-03-05T04:38:52.566Z,97717.38
2023-03-05T04:41:22.482Z,97710.02
2023-03-05T04:44:14.463Z,97707.53
2023-03-05T04:55:16.367Z,97696.59
2023-03-05T05:13:13.948Z,97709.91
2023-03-05T05:15:44.140Z,97702.00
2023-03-05T05:18:13.993Z,97707.41
2023-03-05T05:20:44.060Z,97705.20
2023-03-05T05:23:14.408Z,97700.56
2023-03-05T05:25:49.341Z,97701.65
2023-03-05T05:28:19.568Z,97696.20
2023-03-05T05:30:49.697Z,97690.17
2023-03-05T05:33:19.995Z,97690.44
2023-03-05T05:35:50.736Z,97690.68
2023-03-05T05:38:21.814Z,97690.98
2023-03-05T05:40:56.823Z,97693.95
2023-03-05T05:43:26.989Z,97699.35
2023-03-05T05:45:57.807Z,97699.11
2023-03-05T05:48:32.486Z,97696.94
2023-03-05T05:51:02.593Z,97692.55
2023-03-05T05:53:33.197Z,97695.22
2023-03-05T05:56:06.296Z,97695.77
2023-03-05T05:58:43.985Z,97688.38
2023-03-05T06:01:29.162Z,97687.02
2023-03-05T06:04:05.931Z,97691.95
2023-03-05T06:06:36.722Z,97696.55
2023-03-05T06:09:06.758Z,97700.36
2023-03-05T06:11:36.910Z,97706.58
2023-03-05T06:14:11.974Z,97704.39
2023-03-05T06:16:46.631Z,97709.02
2023-03-05T06:19:22.164Z,97714.16
2023-03-05T06:21:57.121Z,97715.79
2023-03-05T06:24:32.337Z,97716.33
2023-03-05T06:27:06.930Z,97714.13
2023-03-05T06:29:43.499Z,97724.45
2023-03-05T06:32:18.733Z,97712.20
2023-03-05T06:34:49.470Z,97719.55
2023-03-05T06:37:19.596Z,97714.89
2023-03-05T06:39:49.743Z,97717.06
2023-03-05T06:42:24.386Z,97715.94
2023-03-05T06:44:54.860Z,97712.94
2023-03-05T06:47:24.725Z,97721.65
2023-03-05T06:49:54.641Z,97724.91
2023-03-05T06:52:24.504Z,97726.77
2023-03-05T06:54:55.837Z,97725.10
2023-03-05T06:57:25.913Z,97731.36
2023-03-05T06:59:55.867Z,97739.80
2023-03-05T07:02:27.847Z,97732.99
2023-03-05T07:04:58.024Z,97729.68
2023-03-05T07:07:27.996Z,97723.09
2023-03-05T07:09:57.859Z,97726.69
2023-03-05T07:12:27.936Z,97728.05
2023-03-05T07:14:58.025Z,97723.65
2023-03-05T07:17:27.937Z,97731.00
2023-03-05T07:19:57.884Z,97731.54
2023-03-05T07:22:27.714Z,97726.88
2023-03-05T07:24:57.609Z,97724.41
2023-03-05T07:27:27.728Z,97724.41
2023-03-05T07:29:57.620Z,97728.50
2023-03-05T07:32:27.555Z,97721.92
2023-03-05T07:34:57.659Z,97724.37
2023-03-05T07:37:30.594Z,97718.88
2023-03-05T07:40:00.510Z,97723.20
2023-03-05T07:42:30.584Z,97722.37
2023-03-05T07:45:00.512Z,97717.47
2023-03-05T07:47:31.319Z,97717.47
2023-03-05T07:50:01.261Z,97695.98
2023-03-05T07:52:31.199Z,97719.61
2023-03-05T07:55:01.815Z,97721.25
2023-03-05T07:57:31.705Z,97718.25
2023-03-05T08:00:01.772Z,97713.89
2023-03-05T08:02:31.870Z,97707.59
2023-03-05T08:05:03.400Z,97711.94
2023-03-05T08:07:35.678Z,97699.38
2023-03-05T08:10:09.231Z,97689.81
2023-03-05T08:12:41.449Z,97691.48
2023-03-05T08:15:16.372Z,97673.72
2023-03-05T08:17:48.202Z,97672.36
2023-03-05T08:20:21.124Z,97669.88
2023-03-05T08:22:52.632Z,97667.95
2023-03-05T08:25:28.380Z,97674.45
2023-03-05T08:27:58.498Z,97674.17
2023-03-05T08:30:28.360Z,97672.23
2023-03-05T08:32:58.406Z,97677.39
2023-03-05T08:35:31.975Z,97666.74
2023-03-05T08:38:05.282Z,97662.12
2023-03-05T08:40:34.957Z,97665.11
2023-03-05T08:43:06.245Z,97660.20
2023-03-05T08:45:36.318Z,97658.53
2023-03-05T08:48:06.341Z,97658.80
2023-03-05T08:50:39.027Z,97654.95
2023-03-05T08:53:09.140Z,97649.77
2023-03-05T08:55:38.986Z,97645.38
2023-03-05T08:58:09.107Z,97633.92
2023-03-05T09:00:38.963Z,97648.06
2023-03-05T09:03:08.880Z,97639.08
2023-03-05T09:05:41.671Z,97636.90
2023-03-05T09:08:12.428Z,97631.16
2023-03-05T09:10:46.168Z,97624.89
2023-03-05T09:13:17.830Z,97629.23
2023-03-05T09:15:48.033Z,97624.84
2023-03-05T09:18:19.412Z,97622.13
2023-03-05T09:20:50.904Z,97614.77
2023-03-05T09:23:22.300Z,97612.28
2023-03-05T09:25:52.170Z,97620.67
2023-03-05T09:28:22.239Z,97616.09
2023-03-05T09:30:52.224Z,97613.60
2023-03-05T09:33:22.137Z,97611.70
2023-03-05T09:35:52.099Z,97611.42
2023-03-05T09:38:22.008Z,97607.84
2023-03-05T09:41:08.099Z,97607.02
2023-03-05T09:43:46.486Z,97608.61
2023-03-05T09:46:21.716Z,97606.44
2023-03-05T09:49:10.795Z,97599.87
2023-03-05T09:51:42.829Z,97595.52
2023-03-05T09:54:27.694Z,97597.10
2023-03-05T09:56:58.224Z,97599.31
2023-03-05T09:59:47.082Z,97594.11
2023-03-05T10:02:37.960Z,97591.62
2023-03-05T10:05:28.161Z,97597.31
2023-03-05T10:08:03.958Z,97597.55
2023-03-05T10:13:43.554Z,97590.48
2023-03-05T10:16:34.974Z,97594.55
2023-03-05T10:19:33.859Z,97588.84
2023-03-05T10:22:06.934Z,97586.58
2023-03-05T10:24:51.454Z,97596.09
2023-03-05T10:27:23.524Z,97594.18
2023-03-05T10:30:00.324Z,97591.16
2023-03-05T10:32:37.431Z,97591.97
2023-03-05T10:35:37.945Z,97590.56
2023-03-05T10:38:43.412Z,97585.39
2023-03-05T10:41:32.999Z,97585.63
2023-03-05T10:44:17.838Z,97592.95
2023-03-05T10:46:55.176Z,97594.58
2023-03-05T10:49:39.501Z,97596.76
2023-03-05T10:52:18.574Z,97595.62
2023-03-05T10:54:48.707Z,97586.66
2023-03-05T10:57:26.872Z,97584.70
2023-03-05T11:00:01.745Z,97579.53
2023-03-05T11:02:31.893Z,97580.58
2023-03-05T11:05:08.092Z,97575.69
2023-03-05T11:07:38.117Z,97566.72
2023-03-05T11:10:18.772Z,97577.59
2023-03-05T11:12:48.904Z,97572.92
2023-03-05T11:15:23.142Z,97569.38
2023-03-05T11:18:24.555Z,97565.84
2023-03-05T11:20:55.939Z,97569.61
2023-03-05T11:23:26.256Z,97568.80
2023-03-05T11:26:07.395Z,97560.59
2023-03-05T11:28:39.882Z,97564.67
2023-03-05T11:31:22.565Z,97575.03
2023-03-05T11:34:09.685Z,97576.81
2023-03-05T11:36:43.576Z,97574.72
2023-03-05T11:39:19.444Z,97571.70
2023-03-05T11:42:03.816Z,97556.55
2023-03-05T11:44:36.753Z,97570.34
2023-03-05T11:47:15.213Z,97573.05
2023-03-05T11:49:48.197Z,97568.47
2023-03-05T11:52:26.768Z,97570.11
2023-03-05T11:55:08.242Z,97572.33
2023-03-05T11:57:48.859Z,97569.44
2023-03-05T12:00:24.230Z,97570.56
2023-03-05T12:02:55.388Z,97570.39
2023-03-05T12:05:26.808Z,97573.48
2023-03-05T12:08:01.692Z,97576.30
2023-03-05T12:10:33.788Z,97570.36
2023-03-05T12:13:34.687Z,97576.97
2023-03-05T12:16:07.476Z,97580.83
2023-03-05T12:18:55.295Z,97585.05
2023-03-05T12:21:34.250Z,97584.31
2023-03-05T12:24:05.656Z,97588.76
2023-03-05T12:27:00.248Z,97584.53
2023-03-05T12:29:52.849Z,97589.48
2023-03-05T12:32:32.415Z,97592.79
2023-03-05T12:35:05.924Z,97595.36
2023-03-05T12:37:38.610Z,97594.89
2023-03-05T12:40:30.286Z,97601.47
2023-03-05T12:43:04.835Z,97601.00
2023-03-05T12:45:42.174Z,97603.50
2023-03-05T12:48:16.005Z,97599.45
2023-03-05T12:50:48.708Z,97598.41
2023-03-05T12:53:19.759Z,97598.17
2023-03-05T12:55:58.195Z,97598.48
2023-03-05T12:58:36.703Z,97601.25
2023-03-05T13:01:15.029Z,97608.37
2023-03-05T13:04:00.700Z,97605.98
2023-03-05T13:06:34.304Z,97595.14
2023-03-05T13:09:23.883Z,97597.63
2023-03-05T13:11:54.633Z,97605.56
2023-03-05T13:14:36.131Z,97606.14
2023-03-05T13:17:07.520Z,97609.42
2023-03-05T13:19:37.449Z,97621.16
2023-03-05T13:22:09.104Z,97622.52
2023-03-05T13:24:39.227Z,97617.38
2023-03-05T13:27:11.863Z,97628.01
2023-03-05T13:29:44.826Z,97628.31
2023-03-05T13:32:23.875Z,97629.13
2023-03-05T13:34:53.803Z,97625.05
2023-03-05T13:40:54.529Z,97630.77
2023-03-05T13:42:21.079Z,97625.32
2023-03-05T13:43:24.445Z,97640.88
2023-03-05T13:45:57.545Z,97638.98
2023-03-05T13:48:28.472Z,97641.70
2023-03-05T13:50:59.332Z,97638.43
2023-03-05T13:53:30.498Z,97643.88
2023-03-05T13:56:08.208Z,97645.24
2023-03-05T13:58:57.011Z,97647.96
2023-03-05T14:01:46.215Z,97648.51
2023-03-05T14:04:21.334Z,97646.87
2023-03-05T14:07:02.090Z,97652.31
2023-03-05T14:09:43.332Z,97648.78
2023-03-05T14:12:27.488Z,97631.16
2023-03-05T14:14:58.707Z,97631.16
2023-03-05T14:17:45.229Z,97652.55
2023-03-05T14:20:31.211Z,97662.09
2023-03-05T14:23:02.356Z,97656.64
2023-03-05T14:25:40.288Z,97662.09
2023-03-05T14:28:22.796Z,97662.94
2023-03-05T14:30:53.771Z,97655.82
2023-03-05T14:33:29.468Z,97653.60
2023-03-05T14:35:59.649Z,97665.62
2023-03-05T14:38:31.495Z,97664.26
2023-03-05T14:41:02.675Z,97656.33
2023-03-05T14:43:32.684Z,97667.77
2023-03-05T14:46:02.609Z,97667.45
2023-03-05T14:48:32.509Z,97673.17
2023-03-05T14:51:04.789Z,97672.90
2023-03-05T14:53:37.423Z,97668.81
2023-03-05T14:56:08.983Z,97670.68
2023-03-05T14:58:41.201Z,97677.52
2023-03-05T15:01:13.740Z,97669.70
2023-03-05T15:03:44.489Z,97669.70
2023-03-05T15:06:26.048Z,97671.38
2023-03-05T15:08:54.626Z,97678.47
2023-03-05T15:11:24.579Z,97682.86
2023-03-05T15:13:54.319Z,97682.86
2023-03-05T15:16:24.212Z,97684.53
2023-03-05T15:18:54.562Z,97683.98
2023-03-05T15:21:24.416Z,97685.39
2023-03-05T15:23:54.249Z,97685.66
2023-03-05T15:26:24.384Z,97685.97
2023-03-05T15:28:54.245Z,97688.69
2023-03-05T15:31:25.496Z,97687.33
2023-03-05T15:33:55.643Z,97694.42
2023-03-05T15:36:25.514Z,97698.27
2023-03-05T15:38:55.410Z,97694.72
2023-03-05T15:41:25.573Z,97690.91
2023-03-05T15:43:55.442Z,97692.27
2023-03-05T15:46:25.315Z,97696.12
2023-03-05T15:48:55.319Z,97689.83
2023-03-05T15:51:25.338Z,97692.55
2023-03-05T15:53:55.190Z,97692.27
2023-03-05T15:56:25.066Z,97695.58
2023-03-05T15:58:54.969Z,97694.22
2023-03-05T16:01:25.117Z,97699.67
2023-03-05T16:03:55.135Z,97703.21
2023-03-05T16:06:25.194Z,97704.03
2023-03-05T16:08:57.513Z,97711.11
2023-03-05T16:11:27.781Z,97708.89
2023-03-05T16:13:57.678Z,97705.66
2023-03-05T16:16:27.731Z,97698.55
2023-03-05T16:18:58.327Z,97693.41
2023-03-05T16:21:28.293Z,97692.81
2023-03-05T16:23:58.938Z,97694.45
2023-03-05T16:26:29.031Z,97695.81
2023-03-05T16:28:59.073Z,97696.36
2023-03-05T16:31:34.832Z,97703.17
2023-03-05T16:34:04.752Z,97698.84
2023-03-05T16:36:36.094Z,97694.77
2023-03-05T16:39:07.348Z,97697.18
2023-03-05T16:41:37.232Z,97686.28
2023-03-05T16:44:09.652Z,97671.30
2023-03-05T16:46:39.595Z,97662.31
2023-03-05T16:49:09.555Z,97663.95
2023-03-05T16:51:39.820Z,97663.95
2023-03-05T16:54:10.251Z,97657.95
2023-03-05T16:56:40.224Z,97659.31
2023-03-05T16:59:10.150Z,97661.50
2023-03-05T17:01:40.015Z,97658.50
2023-03-05T17:04:10.086Z,97655.50
2023-03-05T17:06:40.105Z,97651.69
2023-03-05T17:09:09.984Z,97658.50
2023-03-05T17:11:42.108Z,97660.95
2023-03-05T17:14:12.931Z,97653.36
2023-03-05T17:16:43.998Z,97636.16
2023-03-05T17:19:15.003Z,97636.47
2023-03-05T17:21:45.127Z,97626.94
2023-03-05T17:24:16.192Z,97635.93
2023-03-05T17:26:46.734Z,97614.41
2023-03-05T17:29:28.746Z,97628.84
2023-03-05T17:31:58.897Z,97625.30
2023-03-05T17:34:35.902Z,97614.41
2023-03-05T17:37:00.530Z,97613.90
2023-03-05T17:39:32.063Z,97611.45
2023-03-05T17:42:02.169Z,97614.45
2023-03-05T17:44:32.275Z,97614.45
2023-03-05T17:47:03.284Z,97611.72
2023-03-05T17:49:34.127Z,97606.81
2023-03-05T17:52:04.627Z,97595.89
2023-03-05T17:54:36.199Z,97606.23
2023-03-05T17:57:06.758Z,97606.23
2023-03-05T17:59:36.667Z,97607.84
2023-03-05T18:02:07.223Z,97597.22
2023-03-05T18:04:37.347Z,97592.08
2023-03-05T18:07:07.255Z,97593.98
2023-03-05T18:09:37.152Z,97592.86
2023-03-05T18:12:07.479Z,97590.38
2023-03-05T18:14:38.078Z,97583.56
2023-03-05T18:17:08.092Z,97581.66
2023-03-05T18:19:38.033Z,97575.66
2023-03-05T18:22:07.919Z,97566.37
2023-03-05T18:24:38.110Z,97566.67
2023-03-05T18:27:08.167Z,97551.15
2023-03-05T18:29:38.134Z,97563.09
2023-03-05T18:32:08.924Z,97550.33
2023-03-05T18:34:39.001Z,97538.34
2023-03-05T18:37:09.020Z,97528.00
2023-03-05T18:39:39.207Z,97525.27
2023-03-05T18:42:10.930Z,97516.59
2023-03-05T18:44:41.036Z,97508.17
2023-03-05T18:47:11.201Z,97505.45
2023-03-05T18:49:41.182Z,97489.66
2023-03-05T18:52:37.248Z,97491.59
2023-03-05T18:55:08.217Z,97478.79
2023-03-05T18:57:38.387Z,97483.45
2023-03-05T19:00:09.144Z,97473.70
2023-03-05T19:02:39.113Z,97481.33
2023-03-05T19:05:09.483Z,97471.01
2023-03-05T19:07:39.632Z,97472.64
2023-03-05T19:10:11.352Z,97461.47
2023-03-05T19:12:49.474Z,97458.48
2023-03-05T19:15:22.392Z,97451.14
2023-03-05T19:17:52.484Z,97440.00
2023-03-05T19:20:22.531Z,97435.38
2023-03-05T19:22:53.690Z,97430.73
2023-03-05T19:25:23.940Z,97426.66
2023-03-05T19:27:53.909Z,97421.20
2023-03-05T19:30:24.026Z,97406.77
2023-03-05T19:32:59.097Z,97408.38
2023-03-05T19:35:29.419Z,97404.59
2023-03-05T19:38:01.524Z,97399.70
2023-03-05T19:40:31.463Z,97409.76
2023-03-05T19:43:02.598Z,97406.52
2023-03-05T19:45:37.832Z,97402.13
2023-03-05T19:48:10.302Z,97392.59
2023-03-05T19:50:41.040Z,97402.70
2023-03-05T19:53:15.340Z,97390.44
2023-03-05T19:55:44.510Z,97381.72
2023-03-05T19:58:14.538Z,97377.66
2023-03-05T20:00:44.437Z,97401.09
2023-03-05T20:03:14.302Z,97395.37
2023-03-05T20:05:44.700Z,97384.47
2023-03-05T20:08:14.929Z,97386.95
2023-03-05T20:10:47.335Z,97379.86
2023-03-05T20:13:17.235Z,97382.59
2023-03-05T20:15:47.901Z,97369.27
2023-03-05T20:18:18.995Z,97361.36
2023-03-05T20:20:50.392Z,97361.63
2023-03-05T20:23:20.585Z,97356.17
2023-03-05T20:25:58.028Z,97351.02
2023-03-05T20:28:28.594Z,97353.75
2023-03-05T20:30:59.022Z,97345.84
2023-03-05T20:33:36.662Z,97337.40
2023-03-05T20:36:08.351Z,97342.02
2023-03-05T20:38:38.303Z,97332.79
2023-03-05T20:41:18.260Z,97325.18
2023-03-05T20:43:49.684Z,97330.08
2023-03-05T20:46:26.485Z,97316.48
2023-03-05T20:48:58.554Z,97302.84
2023-03-05T20:51:44.010Z,97301.75
2023-03-05T20:54:27.189Z,97290.30
2023-03-05T20:56:57.182Z,97281.58
2023-03-05T20:59:27.290Z,97296.34
2023-03-05T21:02:09.577Z,97296.34
2023-03-05T21:04:39.686Z,97294.18
2023-03-05T21:07:10.552Z,97296.08
2023-03-05T21:09:40.655Z,97292.84
2023-03-05T21:12:14.210Z,97293.35
2023-03-05T21:14:44.126Z,97299.65
2023-03-05T21:17:14.033Z,97299.91
2023-03-05T21:19:45.428Z,97298.30
2023-03-05T21:22:17.258Z,97302.09
2023-03-05T21:24:48.455Z,97297.20
2023-03-05T21:27:18.453Z,97295.59
2023-03-05T21:29:48.367Z,97287.69
2023-03-05T21:32:18.348Z,97282.50
2023-03-05T21:34:48.907Z,97278.70
2023-03-05T21:37:19.244Z,97280.08
2023-03-05T21:39:49.220Z,97274.09
2023-03-05T21:42:19.682Z,97279.81
2023-03-05T21:44:52.209Z,97284.45
2023-03-05T21:47:23.784Z,97285.02
2023-03-05T21:49:54.804Z,97284.47
2023-03-05T21:52:25.157Z,97278.73
2023-03-05T21:54:57.820Z,97270.31
2023-03-05T21:57:28.827Z,97259.66
2023-03-05T21:59:59.058Z,97262.95
2023-03-05T22:02:29.115Z,97259.16
2023-03-05T22:04:59.224Z,97256.42
2023-03-05T22:07:29.330Z,97251.81
2023-03-05T22:09:59.319Z,97256.16
2023-03-05T22:12:44.957Z,97243.34
2023-03-05T22:15:15.191Z,97233.81
2023-03-05T22:17:45.230Z,97231.08
2023-03-05T22:20:15.316Z,97230.83
2023-03-05T22:22:51.899Z,97237.40
2023-03-05T22:25:29.171Z,97230.59
2023-03-05T22:27:59.936Z,97235.80
2023-03-05T22:30:29.860Z,97226.51
2023-03-05T22:33:05.748Z,97227.88
2023-03-05T22:35:36.286Z,97229.00
2023-03-05T22:38:07.379Z,97227.34
2023-03-05T22:40:39.703Z,97223.27
2023-03-05T22:43:11.960Z,97230.38
2023-03-05T22:45:42.430Z,97232.82
2023-03-05T22:48:13.742Z,97227.37
2023-03-05T22:50:44.769Z,97230.37
2023-03-05T22:53:15.455Z,97232.02
2023-03-05T22:55:45.527Z,97231.22
2023-03-05T22:58:15.435Z,97228.20
2023-03-05T23:00:45.978Z,97232.86
2023-03-05T23:03:24.053Z,97245.95
2023-03-05T23:05:56.538Z,97238.03
2023-03-05T23:08:29.206Z,97238.59
2023-03-05T23:10:59.288Z,97239.16
2023-03-05T23:13:31.602Z,97245.98
2023-03-05T23:16:02.105Z,97250.34
2023-03-05T23:18:32.026Z,97244.88
2023-03-05T23:21:02.369Z,97253.62
2023-03-05T23:23:33.289Z,97250.36
2023-03-05T23:26:03.880Z,97251.72
2023-03-05T23:28:35.743Z,97254.72
2023-03-05T23:31:07.362Z,97249.55
2023-03-05T23:33:38.121Z,97243.00
2023-03-05T23:36:10.616Z,97257.75
2023-03-05T23:38:43.053Z,97261.30
2023-03-05T23:41:12.990Z,97264.29
2023-03-05T23:43:46.934Z,97268.12
2023-03-05T23:46:16.075Z,97266.50
2023-03-05T23:48:46.054Z,97262.67
2023-03-05T23:51:15.993Z,97256.40
2023-03-05T23:53:46.449Z,97253.67
2023-03-05T23:56:16.583Z,97251.47
2023-03-05T23:58:46.688Z,97259.66
